Sherman, Wisconsin
Current Conditions -  °F | °C
As of 5:55 PM on Wednesday 28 Jan 2015 (Local Time) from KPBH Reporting Station
Clear Clear  
Wind Chill: 19°   Ceiling: Unl
Heat Index: 28°   Visibility: 10mi
Dew Point: 22°   Wind: 8mph
Humidity: 78%   Direction: 140°SE
Pressure: 29.81"   Gusts: NA
Location:  45.9599°N, 90.2362°W
Report Text: KPBH 282355Z AUTO 14007KT 10SM CLR M02/M06 A2981 RMK AO2 T10251058 11020 21037
Loading
Personal Weather Stations






























Interactive Weather Map New forecast layout! Learn more

10-Day Weather Forecast

Advertisements
Track Severe Weather on mobile